Time;durP1;ratioP1;P1;durP2;ratioP2;P2;SDS_P1;SDS_P2;PMS_P1;PMS_P2;Temp;Humidity;BMP_temperature;BMP_pressure;BME280_temperature;BME280_humidity;BME280_pressure;Samples;Min_cycle;Max_cycle;Signal;HPM_P1;HPM_P2
2022/07/27 00:01:29;;;;;;;19.70;15.20;;;;;;;15.31;88.39;98484.30;220237;1270;22690;-70
2022/07/27 00:06:32;;;;;;;20.60;14.20;;;;;;;15.24;88.34;98478.66;220153;1270;23308;-70
2022/07/27 00:11:35;;;;;;;20.70;15.20;;;;;;;15.18;88.12;98480.44;220257;1270;22736;-70
2022/07/27 00:16:37;;;;;;;20.70;14.30;;;;;;;15.12;88.14;98477.50;220119;1270;24498;-69
2022/07/27 00:21:39;;;;;;;19.70;14.50;;;;;;;15.05;88.27;98480.41;220163;1270;24431;-69
2022/07/27 00:26:45;;;;;;;21.30;13.60;;;;;;;15.02;88.38;98482.81;220193;1272;22961;-70
2022/07/27 00:31:48;;;;;;;20.00;14.90;;;;;;;14.96;88.46;98490.83;220178;1270;24216;-70
2022/07/27 00:36:58;;;;;;;18.60;14.30;;;;;;;14.91;88.57;98502.73;219880;1270;24261;-70
2022/07/27 00:42:09;;;;;;;17.90;14.50;;;;;;;14.87;88.62;98510.29;220132;1270;22570;-71
2022/07/27 00:47:11;;;;;;;20.40;14.20;;;;;;;14.82;88.77;98515.41;220046;1270;24488;-71
2022/07/27 00:52:16;;;;;;;20.30;13.90;;;;;;;14.78;88.65;98509.53;221223;1270;22714;-70
2022/07/27 00:57:18;;;;;;;18.80;14.20;;;;;;;14.74;88.88;98516.61;220126;1270;24272;-69
2022/07/27 01:02:21;;;;;;;16.90;13.10;;;;;;;14.70;88.84;98513.90;220020;1271;22576;-70
2022/07/27 01:07:25;;;;;;;16.90;13.20;;;;;;;14.65;88.85;98515.40;220192;1270;26266;-70
2022/07/27 01:12:30;;;;;;;16.60;12.40;;;;;;;14.62;88.88;98513.45;220255;1271;25133;-70
2022/07/27 01:17:32;;;;;;;17.60;12.70;;;;;;;14.58;89.09;98517.30;220334;1270;22560;-71
2022/07/27 01:22:35;;;;;;;12.10;10.80;;;;;;;14.59;89.41;98519.89;219996;1270;24104;-70
2022/07/27 01:27:37;;;;;;;11.60;10.30;;;;;;;14.59;89.43;98519.48;220146;1270;22552;-70
2022/07/27 01:32:54;;;;;;;13.20;11.80;;;;;;;14.53;89.11;98526.88;220224;1271;22547;-70
2022/07/27 01:38:08;;;;;;;14.20;11.20;;;;;;;14.47;89.21;98524.48;220380;1270;22611;-72
2022/07/27 01:43:10;;;;;;;13.20;11.80;;;;;;;14.45;89.40;98525.38;220204;1270;25543;-71
2022/07/27 01:48:13;;;;;;;15.40;11.70;;;;;;;14.42;89.41;98522.94;220133;1270;26377;-70
2022/07/27 01:53:24;;;;;;;12.40;11.20;;;;;;;14.39;89.41;98518.66;220682;1270;24438;-70
2022/07/27 01:58:26;;;;;;;14.20;11.10;;;;;;;14.36;89.48;98519.55;220506;1270;25259;-70
2022/07/27 02:03:28;;;;;;;13.80;10.10;;;;;;;14.33;89.35;98515.77;219998;1271;26102;-70
2022/07/27 02:08:31;;;;;;;11.40;10.10;;;;;;;14.27;89.28;98519.54;220195;1271;22587;-70
2022/07/27 02:13:33;;;;;;;13.70;10.70;;;;;;;14.23;89.46;98523.81;220093;1270;25255;-70
2022/07/27 02:18:36;;;;;;;14.30;10.60;;;;;;;14.22;89.70;98533.33;220131;1270;22555;-70
2022/07/27 02:23:43;;;;;;;11.40;9.70;;;;;;;14.21;89.91;98540.52;220178;1270;22708;-71
2022/07/27 02:28:45;;;;;;;12.40;10.30;;;;;;;14.18;89.89;98548.04;220576;1270;22642;-69
2022/07/27 02:33:48;;;;;;;16.10;11.70;;;;;;;14.14;89.70;98555.07;220247;1270;25397;-71
2022/07/27 02:38:50;;;;;;;14.20;12.00;;;;;;;14.10;89.70;98566.19;219915;1271;22961;-70
2022/07/27 02:43:52;;;;;;;17.90;11.40;;;;;;;14.03;89.61;98561.21;220124;1273;25547;-70
2022/07/27 02:48:55;;;;;;;13.00;10.20;;;;;;;13.96;89.61;98558.14;220184;1271;22546;-70
2022/07/27 02:53:58;;;;;;;13.50;11.30;;;;;;;13.88;89.51;98549.16;220254;1271;22583;-70
2022/07/27 02:59:01;;;;;;;13.30;11.70;;;;;;;13.82;89.77;98548.96;220165;1270;25324;-72
2022/07/27 03:04:04;;;;;;;11.60;10.40;;;;;;;13.80;89.99;98549.63;220154;1270;24372;-72
2022/07/27 03:09:20;;;;;;;13.40;11.30;;;;;;;13.75;89.98;98555.58;220311;1270;23820;-71
2022/07/27 03:14:34;;;;;;;12.40;11.10;;;;;;;13.69;89.92;98557.43;219978;1270;23799;-70
2022/07/27 03:19:37;;;;;;;12.60;11.20;;;;;;;13.63;89.78;98560.63;220024;1270;22521;-70
2022/07/27 03:24:39;;;;;;;12.90;11.60;;;;;;;13.56;89.82;98569.63;220148;1270;22537;-71
2022/07/27 03:29:42;;;;;;;11.10;10.00;;;;;;;13.53;89.88;98567.37;220100;1270;25305;-70
2022/07/27 03:34:44;;;;;;;14.50;10.30;;;;;;;13.49;89.89;98579.20;220106;1270;23791;-71
2022/07/27 03:39:49;;;;;;;11.70;10.60;;;;;;;13.48;89.99;98575.18;220195;1270;22541;-70
2022/07/27 03:45:04;;;;;;;12.20;11.00;;;;;;;13.55;90.28;98573.27;220262;1271;23950;-70
2022/07/27 03:50:07;;;;;;;12.80;11.10;;;;;;;13.73;90.67;98573.52;220221;1270;22551;-71
2022/07/27 03:55:12;;;;;;;11.90;10.80;;;;;;;13.99;91.15;98566.55;220074;1270;22560;-70
2022/07/27 04:00:15;;;;;;;12.50;11.30;;;;;;;14.23;90.56;98565.61;220028;1270;22541;-68
2022/07/27 04:05:19;;;;;;;13.20;11.30;;;;;;;14.39;90.37;98568.73;220150;1270;22724;-70
2022/07/27 04:10:23;;;;;;;13.00;11.40;;;;;;;14.52;90.66;98572.60;220068;1270;24456;-70
2022/07/27 04:15:32;;;;;;;11.50;9.80;;;;;;;14.64;90.71;98576.36;220183;1270;23864;-69
2022/07/27 04:20:35;;;;;;;10.60;9.00;;;;;;;14.73;90.87;98567.40;220009;1270;22559;-71
2022/07/27 04:25:38;;;;;;;11.60;10.30;;;;;;;14.79;90.55;98568.71;220158;1270;23799;-69
2022/07/27 04:30:40;;;;;;;10.20;9.10;;;;;;;14.85;90.72;98573.68;220193;1271;22559;-71
2022/07/27 04:35:43;;;;;;;12.30;10.90;;;;;;;14.96;91.04;98572.88;220130;1270;22939;-70
2022/07/27 04:40:45;;;;;;;9.60;8.70;;;;;;;15.10;91.24;98570.15;220018;1270;23831;-69
2022/07/27 04:45:47;;;;;;;10.50;9.40;;;;;;;15.23;91.12;98574.23;220234;1270;22535;-70
2022/07/27 04:50:51;;;;;;;10.80;9.70;;;;;;;15.36;91.32;98584.06;220137;1270;25265;-69
2022/07/27 04:55:56;;;;;;;10.50;9.40;;;;;;;15.49;91.28;98586.61;220219;1270;24228;-70
2022/07/27 05:01:14;;;;;;;11.80;9.40;;;;;;;15.58;90.92;98575.40;220014;1270;22528;-70
2022/07/27 05:06:17;;;;;;;10.50;9.40;;;;;;;15.65;90.84;98584.20;220086;1270;25532;-71
2022/07/27 05:11:21;;;;;;;9.40;8.40;;;;;;;15.75;91.05;98578.72;220206;1270;23905;-71
2022/07/27 05:16:44;;;;;;;9.80;8.90;;;;;;;15.85;90.82;98585.08;220279;1270;22531;-71
2022/07/27 05:22:09;;;;;;;12.10;9.60;;;;;;;15.93;90.67;98597.41;220087;1270;25332;-71
2022/07/27 05:27:11;;;;;;;11.50;10.30;;;;;;;16.03;91.05;98587.14;220208;1270;25323;-70
2022/07/27 05:32:14;;;;;;;10.80;9.60;;;;;;;16.15;90.95;98595.70;220064;1270;25479;-70
2022/07/27 05:37:17;;;;;;;13.70;10.20;;;;;;;16.25;90.76;98610.26;220067;1270;25312;-70
2022/07/27 05:42:19;;;;;;;11.70;10.60;;;;;;;16.37;90.91;98609.37;219927;1270;22560;-70
2022/07/27 05:47:22;;;;;;;9.50;8.00;;;;;;;16.47;90.62;98625.35;219690;1271;22571;-69
2022/07/27 05:52:24;;;;;;;11.60;8.90;;;;;;;16.49;89.90;98626.11;220057;1270;22564;-70
2022/07/27 05:57:27;;;;;;;10.70;9.60;;;;;;;16.58;89.99;98632.83;219739;1270;22547;-70
2022/07/27 06:02:30;;;;;;;11.70;10.50;;;;;;;16.68;90.09;98638.60;219099;1270;22600;-69
2022/07/27 06:12:58;;;;;;;12.20;11.00;;;;;;;16.86;89.71;98640.17;219664;1270;23314;-68
2022/07/27 06:18:02;;;;;;;12.60;11.30;;;;;;;16.94;89.70;98638.44;219802;1269;22575;-70
2022/07/27 06:23:04;;;;;;;14.30;11.70;;;;;;;16.99;89.38;98638.02;219247;1271;22599;-69
2022/07/27 06:28:09;;;;;;;18.80;12.70;;;;;;;17.09;89.44;98638.03;219609;1270;22648;-69
2022/07/27 06:33:12;;;;;;;12.70;11.50;;;;;;;17.19;89.39;98642.92;219574;1270;24314;-69
2022/07/27 06:38:17;;;;;;;14.20;12.70;;;;;;;17.28;89.06;98645.14;221793;1270;22597;-74
2022/07/27 06:43:20;;;;;;;15.50;12.40;;;;;;;17.36;88.97;98646.27;219445;1270;25431;-70
2022/07/27 06:48:26;;;;;;;13.30;12.00;;;;;;;17.43;88.79;98652.14;219981;1270;24432;-72
2022/07/27 06:53:28;;;;;;;17.10;15.20;;;;;;;17.48;88.30;98663.05;219457;1270;24235;-72
2022/07/27 06:58:40;;;;;;;14.00;12.40;;;;;;;17.50;88.18;98666.07;221484;1270;24324;-71
2022/07/27 07:04:22;;;;;;;17.30;15.60;;;;;;;17.50;87.85;98669.73;221580;1269;25374;-73
2022/07/27 07:09:33;;;;;;;14.40;12.90;;;;;;;17.52;88.01;98670.55;221516;1270;22941;-72
2022/07/27 07:15:02;;;;;;;14.80;12.90;;;;;;;17.51;87.62;98669.83;221313;1270;22547;-69
2022/07/27 07:20:10;;;;;;;20.90;16.70;;;;;;;17.53;87.62;98664.31;219951;1270;24317;-70
2022/07/27 07:25:15;;;;;;;214.30;168.50;;;;;;;17.57;87.45;98669.55;220306;1270;22965;-71
2022/07/27 07:30:21;;;;;;;30.80;25.30;;;;;;;17.67;87.57;98674.35;219786;1270;24305;-71
2022/07/27 07:35:42;;;;;;;23.80;20.90;;;;;;;17.76;87.30;98672.48;219778;1269;22588;-69
2022/07/27 07:41:15;;;;;;;19.80;16.50;;;;;;;17.87;87.10;98679.55;219993;1270;25424;-69
2022/07/27 07:46:18;;;;;;;17.10;15.40;;;;;;;17.95;87.12;98681.44;219861;1270;23957;-69
2022/07/27 07:51:20;;;;;;;17.70;15.80;;;;;;;18.07;86.86;98682.59;219874;1270;25252;-69
2022/07/27 07:56:23;;;;;;;21.40;19.20;;;;;;;18.14;86.53;98687.59;219980;1270;25350;-69
2022/07/27 08:01:35;;;;;;;23.30;20.90;;;;;;;18.17;86.09;98695.27;220018;1270;22531;-71
2022/07/27 08:06:58;;;;;;;51.90;44.20;;;;;;;18.26;86.53;98694.71;219914;1270;22550;-72
2022/07/27 08:12:01;;;;;;;24.10;21.50;;;;;;;18.34;86.44;98691.45;220019;1270;25306;-72
2022/07/27 08:17:03;;;;;;;24.00;21.60;;;;;;;18.38;86.03;98687.70;219585;1270;22568;-72
2022/07/27 08:22:10;;;;;;;22.30;20.10;;;;;;;18.40;86.15;98684.95;219595;1270;23570;-68
2022/07/27 08:27:13;;;;;;;27.10;20.20;;;;;;;18.42;85.84;98682.79;219833;1270;25155;-70
2022/07/27 08:32:15;;;;;;;23.50;21.10;;;;;;;18.43;85.41;98686.91;219627;1270;22588;-72
2022/07/27 08:37:21;;;;;;;24.20;21.60;;;;;;;18.48;85.86;98687.23;219829;1270;22786;-74
2022/07/27 08:42:25;;;;;;;26.60;24.00;;;;;;;18.55;85.86;98683.00;219687;1270;25724;-75
2022/07/27 08:47:41;;;;;;;23.80;21.40;;;;;;;18.66;86.50;98686.11;219736;1270;27437;-75
2022/07/27 08:53:02;;;;;;;24.10;20.30;;;;;;;18.75;86.09;98695.27;219744;1270;22732;-73
2022/07/27 08:58:07;;;;;;;26.50;23.80;;;;;;;18.86;86.30;98693.88;219694;1270;25248;-70
2022/07/27 09:03:14;;;;;;;24.80;22.40;;;;;;;19.00;86.47;98692.80;219820;1270;23570;-70
2022/07/27 09:08:26;;;;;;;27.60;24.20;;;;;;;19.06;85.79;98690.33;219622;1270;710778;-74
2022/07/27 09:14:06;;;;;;;26.70;23.90;;;;;;;19.11;85.86;98695.50;221385;1270;22552;-74
2022/07/27 09:19:15;;;;;;;27.50;23.60;;;;;;;19.22;85.57;98693.23;219856;1270;22775;-74
2022/07/27 09:24:34;;;;;;;;;;;;;;;;;;;;;
2022/07/27 09:30:01;;;;;;;27.10;24.30;;;;;;;19.45;85.90;98679.39;221371;1270;25521;-75
2022/07/27 09:35:22;;;;;;;25.90;23.20;;;;;;;19.66;86.29;98671.35;221401;1270;24277;-75
2022/07/27 09:40:24;;;;;;;25.30;22.70;;;;;;;19.80;85.75;98667.04;221466;1270;22662;-75
2022/07/27 09:45:32;;;;;;;19.10;17.00;;;;;;;19.87;85.10;98664.81;221065;1273;22552;-74
2022/07/27 09:50:40;;;;;;;;;;;;;;;19.90;84.31;98660.30;221527;1270;23051;-75
2022/07/27 09:56:14;;;;;;;29.10;25.40;;;;;;;19.98;84.20;98655.13;221315;1270;22535;-74
2022/07/27 10:01:29;;;;;;;24.50;21.90;;;;;;;20.17;84.81;98651.81;221504;1270;22558;-76
2022/07/27 10:06:33;;;;;;;21.80;19.50;;;;;;;20.34;84.20;98651.63;220092;1270;22535;-75
2022/07/27 10:12:03;;;;;;;18.30;16.40;;;;;;;20.41;83.47;98655.72;221256;1270;22572;-71
2022/07/27 10:17:06;;;;;;;19.30;17.30;;;;;;;20.48;83.03;98658.19;221299;1270;24293;-76
2022/07/27 10:22:49;;;;;;;18.60;16.70;;;;;;;20.51;82.35;98658.20;221455;1270;23020;-77
2022/07/27 10:28:16;;;;;;;20.20;17.40;;;;;;;20.59;82.61;98658.42;221347;1270;22533;-74
2022/07/27 10:33:53;;;;;;;14.80;13.40;;;;;;;20.68;82.15;98657.15;221194;1271;24286;-74
2022/07/27 10:38:58;;;;;;;16.10;13.00;;;;;;;20.67;80.64;98664.52;221111;1270;22612;-75
2022/07/27 10:44:26;;;;;;;17.30;14.50;;;;;;;20.70;80.21;98667.63;222067;1270;25454;-76
2022/07/27 10:49:33;;;;;;;16.00;12.80;;;;;;;20.89;81.43;98675.61;221293;1270;25467;-76
2022/07/27 10:55:25;;;;;;;14.40;11.90;;;;;;;21.07;80.97;98672.13;221439;1270;24777;-76
2022/07/27 11:00:52;;;;;;;13.60;12.20;;;;;;;21.27;80.16;98669.38;222524;1270;22522;-80
2022/07/27 11:06:31;;;;;;;15.70;13.50;;;;;;;21.47;79.86;98670.27;221435;1270;22768;-76
2022/07/27 11:11:54;;;;;;;17.00;13.20;;;;;;;21.61;79.46;98669.17;221259;1270;22767;-74
2022/07/27 11:22:58;;;;;;;15.40;13.80;;;;;;;21.76;78.41;98666.16;221255;1271;22557;-74
2022/07/27 11:28:28;;;;;;;14.50;12.90;;;;;;;21.78;78.25;98665.55;221359;1270;22557;-73
2022/07/27 11:33:30;;;;;;;14.60;13.20;;;;;;;21.78;78.31;98657.70;221240;1273;23808;-71
2022/07/27 11:38:53;;;;;;;12.10;10.50;;;;;;;21.78;78.10;98647.80;219914;1270;22614;-72
2022/07/27 11:44:12;;;;;;;11.80;10.70;;;;;;;21.77;77.90;98641.16;221302;1270;23112;-72
2022/07/27 11:49:28;;;;;;;11.60;10.40;;;;;;;21.80;77.31;98641.91;221632;1270;22535;-73
